sensor_id;sensor_type;location;lat;lon;timestamp;pressure;altitude;pressure_sealevel;temperature
40624;BMP280;26325;48.594;11.650;2023-03-11T00:00:21;95299.38;;;3.37
40624;BMP280;26325;48.594;11.650;2023-03-11T00:02:49;95301.72;;;3.27
40624;BMP280;26325;48.594;11.650;2023-03-11T00:05:25;95307.50;;;3.34
40624;BMP280;26325;48.594;11.650;2023-03-11T00:07:52;95300.72;;;3.28
40624;BMP280;26325;48.594;11.650;2023-03-11T00:10:20;95291.84;;;3.30
40624;BMP280;26325;48.594;11.650;2023-03-11T00:12:46;95302.72;;;3.37
40624;BMP280;26325;48.594;11.650;2023-03-11T00:15:11;95309.16;;;3.28
40624;BMP280;26325;48.594;11.650;2023-03-11T00:17:37;95309.84;;;3.35
40624;BMP280;26325;48.594;11.650;2023-03-11T00:20:06;95321.00;;;3.45
40624;BMP280;26325;48.594;11.650;2023-03-11T00:22:35;95329.22;;;3.47
40624;BMP280;26325;48.594;11.650;2023-03-11T00:25:00;95311.47;;;3.41
40624;BMP280;26325;48.594;11.650;2023-03-11T00:27:26;95318.72;;;3.33
40624;BMP280;26325;48.594;11.650;2023-03-11T00:29:51;95316.88;;;3.44
40624;BMP280;26325;48.594;11.650;2023-03-11T00:32:17;95312.13;;;3.37
40624;BMP280;26325;48.594;11.650;2023-03-11T00:34:45;95333.03;;;3.22
40624;BMP280;26325;48.594;11.650;2023-03-11T00:37:13;95335.38;;;3.24
40624;BMP280;26325;48.594;11.650;2023-03-11T00:39:39;95340.56;;;3.29
40624;BMP280;26325;48.594;11.650;2023-03-11T00:42:06;95338.34;;;3.21
40624;BMP280;26325;48.594;11.650;2023-03-11T00:44:34;95338.91;;;3.23
40624;BMP280;26325;48.594;11.650;2023-03-11T00:47:00;95335.38;;;3.24
40624;BMP280;26325;48.594;11.650;2023-03-11T00:49:27;95340.56;;;3.29
40624;BMP280;26325;48.594;11.650;2023-03-11T00:51:53;95353.31;;;3.40
40624;BMP280;26325;48.594;11.650;2023-03-11T00:54:18;95335.91;;;3.26
40624;BMP280;26325;48.594;11.650;2023-03-11T00:56:44;95350.88;;;3.11
40624;BMP280;26325;48.594;11.650;2023-03-11T00:59:14;95354.78;;;3.14
40624;BMP280;26325;48.594;11.650;2023-03-11T01:01:41;95368.88;;;3.16
40624;BMP280;26325;48.594;11.650;2023-03-11T01:04:09;95378.09;;;3.17
40624;BMP280;26325;48.594;11.650;2023-03-11T01:06:37;95368.53;;;3.24
40624;BMP280;26325;48.594;11.650;2023-03-11T01:09:08;95370.97;;;3.19
40624;BMP280;26325;48.594;11.650;2023-03-11T01:11:36;95370.84;;;3.37
40624;BMP280;26325;48.594;11.650;2023-03-11T01:14:01;95367.41;;;3.42
40624;BMP280;26325;48.594;11.650;2023-03-11T01:16:28;95360.66;;;3.25
40624;BMP280;26325;48.594;11.650;2023-03-11T01:18:53;95366.63;;;3.31
40624;BMP280;26325;48.594;11.650;2023-03-11T01:21:21;95355.22;;;3.33
40624;BMP280;26325;48.594;11.650;2023-03-11T01:23:47;95353.88;;;3.31
40624;BMP280;26325;48.594;11.650;2023-03-11T01:26:14;95365.19;;;3.35
40624;BMP280;26325;48.594;11.650;2023-03-11T01:28:40;95360.97;;;3.40
40624;BMP280;26325;48.594;11.650;2023-03-11T01:31:09;95364.38;;;3.45
40624;BMP280;26325;48.594;11.650;2023-03-11T01:33:37;95363.66;;;3.34
40624;BMP280;26325;48.594;11.650;2023-03-11T01:36:05;95372.16;;;3.28
40624;BMP280;26325;48.594;11.650;2023-03-11T01:38:33;95367.84;;;3.28
40624;BMP280;26325;48.594;11.650;2023-03-11T01:40:58;95383.50;;;3.43
40624;BMP280;26325;48.594;11.650;2023-03-11T01:48:44;95361.25;;;3.55
40624;BMP280;26325;48.594;11.650;2023-03-11T01:51:09;95353.94;;;3.47
40624;BMP280;26325;48.594;11.650;2023-03-11T01:53:35;95356.75;;;3.34
40624;BMP280;26325;48.594;11.650;2023-03-11T01:56:01;95350.63;;;3.46
40624;BMP280;26325;48.594;11.650;2023-03-11T01:58:33;95351.81;;;3.55
40624;BMP280;26325;48.594;11.650;2023-03-11T02:01:02;95356.56;;;3.24
40624;BMP280;26325;48.594;11.650;2023-03-11T02:03:38;95353.22;;;3.24
40624;BMP280;26325;48.594;11.650;2023-03-11T02:06:13;95367.97;;;3.33
40624;BMP280;26325;48.594;11.650;2023-03-11T02:08:39;95361.97;;;3.28
40624;BMP280;26325;48.594;11.650;2023-03-11T02:11:11;95353.66;;;3.21
40624;BMP280;26325;48.594;11.650;2023-03-11T02:13:48;95353.34;;;3.18
40624;BMP280;26325;48.594;11.650;2023-03-11T02:16:16;95365.41;;;3.22
40624;BMP280;26325;48.594;11.650;2023-03-11T02:18:43;95358.06;;;3.48
40624;BMP280;26325;48.594;11.650;2023-03-11T02:21:24;95363.09;;;3.21
40624;BMP280;26325;48.594;11.650;2023-03-11T02:29:15;95360.31;;;3.33
40624;BMP280;26325;48.594;11.650;2023-03-11T02:31:41;95347.91;;;3.25
40624;BMP280;26325;48.594;11.650;2023-03-11T02:34:08;95343.91;;;3.18
40624;BMP280;26325;48.594;11.650;2023-03-11T02:36:39;95344.22;;;3.22
40624;BMP280;26325;48.594;11.650;2023-03-11T02:39:08;95357.75;;;3.22
40624;BMP280;26325;48.594;11.650;2023-03-11T02:41:37;95357.53;;;3.12
40624;BMP280;26325;48.594;11.650;2023-03-11T02:44:11;95344.56;;;3.14
40624;BMP280;26325;48.594;11.650;2023-03-11T02:46:38;95348.03;;;2.97
40624;BMP280;26325;48.594;11.650;2023-03-11T02:49:11;95354.00;;;3.13
40624;BMP280;26325;48.594;11.650;2023-03-11T02:51:37;95348.47;;;2.94
40624;BMP280;26325;48.594;11.650;2023-03-11T02:54:05;95362.22;;;3.04
40624;BMP280;26325;48.594;11.650;2023-03-11T02:56:30;95352.78;;;2.93
40624;BMP280;26325;48.594;11.650;2023-03-11T02:58:56;95356.78;;;3.01
40624;BMP280;26325;48.594;11.650;2023-03-11T03:01:24;95369.66;;;3.05
40624;BMP280;26325;48.594;11.650;2023-03-11T03:03:53;95370.00;;;3.09
40624;BMP280;26325;48.594;11.650;2023-03-11T03:06:19;95368.09;;;2.82
40624;BMP280;26325;48.594;11.650;2023-03-11T03:08:49;95384.94;;;2.83
40624;BMP280;26325;48.594;11.650;2023-03-11T03:11:17;95375.19;;;2.80
40624;BMP280;26325;48.594;11.650;2023-03-11T03:13:44;95388.38;;;2.77
40624;BMP280;26325;48.594;11.650;2023-03-11T03:16:10;95413.84;;;2.77
40624;BMP280;26325;48.594;11.650;2023-03-11T03:18:40;95399.34;;;2.66
40624;BMP280;26325;48.594;11.650;2023-03-11T03:21:05;95413.06;;;2.66
40624;BMP280;26325;48.594;11.650;2023-03-11T03:23:33;95418.28;;;2.70
40624;BMP280;26325;48.594;11.650;2023-03-11T03:26:05;95414.63;;;2.66
40624;BMP280;26325;48.594;11.650;2023-03-11T03:28:31;95408.13;;;2.82
40624;BMP280;26325;48.594;11.650;2023-03-11T03:31:03;95404.91;;;2.75
40624;BMP280;26325;48.594;11.650;2023-03-11T03:33:29;95416.31;;;2.84
40624;BMP280;26325;48.594;11.650;2023-03-11T03:35:55;95406.88;;;2.73
40624;BMP280;26325;48.594;11.650;2023-03-11T03:38:20;95418.41;;;2.75
40624;BMP280;26325;48.594;11.650;2023-03-11T03:40:48;95416.66;;;2.87
40624;BMP280;26325;48.594;11.650;2023-03-11T03:43:14;95428.63;;;2.86
40624;BMP280;26325;48.594;11.650;2023-03-11T03:45:41;95422.81;;;2.68
40624;BMP280;26325;48.594;11.650;2023-03-11T03:48:07;95425.94;;;2.70
40624;BMP280;26325;48.594;11.650;2023-03-11T03:50:32;95429.03;;;2.72
40624;BMP280;26325;48.594;11.650;2023-03-11T03:52:58;95438.91;;;2.69
40624;BMP280;26325;48.594;11.650;2023-03-11T03:55:28;95450.75;;;2.64
40624;BMP280;26325;48.594;11.650;2023-03-11T03:57:56;95447.09;;;2.71
40624;BMP280;26325;48.594;11.650;2023-03-11T04:00:21;95454.47;;;2.50
40624;BMP280;26325;48.594;11.650;2023-03-11T04:02:48;95455.59;;;2.54
40624;BMP280;26325;48.594;11.650;2023-03-11T04:05:16;95456.13;;;2.45
40624;BMP280;26325;48.594;11.650;2023-03-11T04:07:41;95465.53;;;2.44
40624;BMP280;26325;48.594;11.650;2023-03-11T04:10:06;95486.06;;;2.49
40624;BMP280;26325;48.594;11.650;2023-03-11T04:12:32;95469.38;;;2.35
40624;BMP280;26325;48.594;11.650;2023-03-11T04:14:57;95464.47;;;2.34
40624;BMP280;26325;48.594;11.650;2023-03-11T04:17:23;95462.59;;;2.29
40624;BMP280;26325;48.594;11.650;2023-03-11T04:19:50;95463.31;;;2.19
40624;BMP280;26325;48.594;11.650;2023-03-11T04:22:16;95479.19;;;2.03
40624;BMP280;26325;48.594;11.650;2023-03-11T04:24:41;95481.75;;;2.03
40624;BMP280;26325;48.594;11.650;2023-03-11T04:27:07;95498.91;;;2.08
40624;BMP280;26325;48.594;11.650;2023-03-11T04:29:35;95506.78;;;2.06
40624;BMP280;26325;48.594;11.650;2023-03-11T04:32:00;95494.59;;;2.08
40624;BMP280;26325;48.594;11.650;2023-03-11T04:34:26;95494.59;;;2.08
40624;BMP280;26325;48.594;11.650;2023-03-11T04:36:52;95504.38;;;2.11
40624;BMP280;26325;48.594;11.650;2023-03-11T04:39:18;95506.22;;;2.04
40624;BMP280;26325;48.594;11.650;2023-03-11T04:41:46;95501.31;;;2.03
40624;BMP280;26325;48.594;11.650;2023-03-11T04:44:12;95504.38;;;2.11
40624;BMP280;26325;48.594;11.650;2023-03-11T04:46:38;95506.78;;;2.06
40624;BMP280;26325;48.594;11.650;2023-03-11T04:49:06;95513.41;;;1.89
40624;BMP280;26325;48.594;11.650;2023-03-11T04:51:34;95495.97;;;1.93
40624;BMP280;26325;48.594;11.650;2023-03-11T04:53:59;95500.75;;;1.83
40624;BMP280;26325;48.594;11.650;2023-03-11T04:56:24;95521.09;;;1.66
40624;BMP280;26325;48.594;11.650;2023-03-11T04:58:52;95531.09;;;1.67
40624;BMP280;26325;48.594;11.650;2023-03-11T05:01:18;95542.38;;;1.53
40624;BMP280;26325;48.594;11.650;2023-03-11T05:03:43;95546.22;;;1.38
40624;BMP280;26325;48.594;11.650;2023-03-11T05:06:09;95546.53;;;1.48
40624;BMP280;26325;48.594;11.650;2023-03-11T05:08:37;95548.41;;;1.35
40624;BMP280;26325;48.594;11.650;2023-03-11T05:11:02;95554.47;;;1.34
40624;BMP280;26325;48.594;11.650;2023-03-11T05:13:28;95548.63;;;1.33
40624;BMP280;26325;48.594;11.650;2023-03-11T05:15:54;95555.84;;;1.36
40624;BMP280;26325;48.594;11.650;2023-03-11T05:18:24;95549.78;;;1.37
40624;BMP280;26325;48.594;11.650;2023-03-11T05:20:53;95556.19;;;1.40
40624;BMP280;26325;48.594;11.650;2023-03-11T05:23:19;95563.25;;;1.38
40624;BMP280;26325;48.594;11.650;2023-03-11T05:25:44;95571.25;;;1.41
40624;BMP280;26325;48.594;11.650;2023-03-11T05:28:12;95575.22;;;1.37
40624;BMP280;26325;48.594;11.650;2023-03-11T05:30:37;95572.88;;;1.36
40624;BMP280;26325;48.594;11.650;2023-03-11T05:33:05;95582.53;;;1.28
40624;BMP280;26325;48.594;11.650;2023-03-11T05:35:30;95577.31;;;1.40
40624;BMP280;26325;48.594;11.650;2023-03-11T05:37:58;95580.50;;;1.36
40624;BMP280;26325;48.594;11.650;2023-03-11T05:40:33;95578.34;;;1.33
40624;BMP280;26325;48.594;11.650;2023-03-11T05:43:00;95583.03;;;1.36
40624;BMP280;26325;48.594;11.650;2023-03-11T05:45:28;95586.97;;;1.32
40624;BMP280;26325;48.594;11.650;2023-03-11T05:47:56;95584.28;;;1.27
40624;BMP280;26325;48.594;11.650;2023-03-11T05:50:26;95584.59;;;1.37
40624;BMP280;26325;48.594;11.650;2023-03-11T05:52:54;95589.69;;;1.37
40624;BMP280;26325;48.594;11.650;2023-03-11T05:55:20;95592.38;;;1.42
40624;BMP280;26325;48.594;11.650;2023-03-11T05:57:45;95607.13;;;1.33
40624;BMP280;26325;48.594;11.650;2023-03-11T06:00:12;95602.88;;;1.52
40624;BMP280;26325;48.594;11.650;2023-03-11T06:02:44;95609.47;;;1.35
40624;BMP280;26325;48.594;11.650;2023-03-11T06:05:11;95590.81;;;1.41
40624;BMP280;26325;48.594;11.650;2023-03-11T06:07:38;95593.78;;;1.38
40624;BMP280;26325;48.594;11.650;2023-03-11T06:10:05;95604.19;;;1.36
40624;BMP280;26325;48.594;11.650;2023-03-11T06:12:33;95590.94;;;1.28
40624;BMP280;26325;48.594;11.650;2023-03-11T06:14:59;95586.88;;;1.45
40624;BMP280;26325;48.594;11.650;2023-03-11T06:17:26;95609.22;;;1.43
40624;BMP280;26325;48.594;11.650;2023-03-11T06:19:52;95602.75;;;1.40
40624;BMP280;26325;48.594;11.650;2023-03-11T06:22:20;95630.75;;;1.40
40624;BMP280;26325;48.594;11.650;2023-03-11T06:24:49;95626.63;;;1.46
40624;BMP280;26325;48.594;11.650;2023-03-11T06:27:14;95632.75;;;1.32
40624;BMP280;26325;48.594;11.650;2023-03-11T06:29:43;95622.66;;;1.50
40624;BMP280;26325;48.594;11.650;2023-03-11T06:32:10;95638.44;;;1.58
40624;BMP280;26325;48.594;11.650;2023-03-11T06:34:36;95642.34;;;1.60
40624;BMP280;26325;48.594;11.650;2023-03-11T06:37:02;95639.28;;;1.52
40624;BMP280;26325;48.594;11.650;2023-03-11T06:39:29;95638.09;;;1.54
40624;BMP280;26325;48.594;11.650;2023-03-11T06:41:57;95625.84;;;1.69
40624;BMP280;26325;48.594;11.650;2023-03-11T06:44:22;95625.25;;;2.08
40624;BMP280;26325;48.594;11.650;2023-03-11T06:46:48;95632.13;;;2.08
40624;BMP280;26325;48.594;11.650;2023-03-11T06:49:14;95639.94;;;2.30
40624;BMP280;26325;48.594;11.650;2023-03-11T06:51:42;95648.41;;;2.25
40624;BMP280;26325;48.594;11.650;2023-03-11T06:54:08;95635.69;;;2.25
40624;BMP280;26325;48.594;11.650;2023-03-11T06:56:34;95652.25;;;2.33
40624;BMP280;26325;48.594;11.650;2023-03-11T06:58:59;95646.63;;;2.49
40624;BMP280;26325;48.594;11.650;2023-03-11T07:01:24;95652.34;;;2.62
40624;BMP280;26325;48.594;11.650;2023-03-11T07:03:52;95656.38;;;2.52
40624;BMP280;26325;48.594;11.650;2023-03-11T07:06:23;95664.59;;;2.54
40624;BMP280;26325;48.594;11.650;2023-03-11T07:08:50;95655.09;;;2.78
40624;BMP280;26325;48.594;11.650;2023-03-11T07:11:17;95662.72;;;2.78
40624;BMP280;26325;48.594;11.650;2023-03-11T07:13:44;95656.75;;;3.02
40624;BMP280;26325;48.594;11.650;2023-03-11T07:16:15;95671.78;;;3.78
40624;BMP280;26325;48.594;11.650;2023-03-11T07:18:44;95673.28;;;4.91
40624;BMP280;26325;48.594;11.650;2023-03-11T07:21:11;95659.91;;;6.14
40624;BMP280;26325;48.594;11.650;2023-03-11T07:23:37;95665.38;;;7.13
40624;BMP280;26325;48.594;11.650;2023-03-11T07:26:11;95659.81;;;9.29
40624;BMP280;26325;48.594;11.650;2023-03-11T07:28:37;95644.97;;;10.72
40624;BMP280;26325;48.594;11.650;2023-03-11T07:31:07;95645.03;;;10.24
40624;BMP280;26325;48.594;11.650;2023-03-11T07:33:33;95663.88;;;9.80
40624;BMP280;26325;48.594;11.650;2023-03-11T07:36:04;95677.31;;;9.17
40624;BMP280;26325;48.594;11.650;2023-03-11T07:38:29;95700.31;;;8.83
40624;BMP280;26325;48.594;11.650;2023-03-11T07:40:58;95683.88;;;8.49
40624;BMP280;26325;48.594;11.650;2023-03-11T07:43:23;95713.72;;;6.46
40624;BMP280;26325;48.594;11.650;2023-03-11T07:45:49;95706.78;;;7.00
40624;BMP280;26325;48.594;11.650;2023-03-11T07:48:15;95712.75;;;6.84
40624;BMP280;26325;48.594;11.650;2023-03-11T07:50:41;95714.00;;;6.66
40624;BMP280;26325;48.594;11.650;2023-03-11T07:53:06;95726.47;;;6.42
40624;BMP280;26325;48.594;11.650;2023-03-11T07:55:32;95723.81;;;6.05
40624;BMP280;26325;48.594;11.650;2023-03-11T07:57:58;95741.34;;;5.80
40624;BMP280;26325;48.594;11.650;2023-03-11T08:00:23;95736.75;;;5.55
40624;BMP280;26325;48.594;11.650;2023-03-11T08:02:48;95741.78;;;5.00
40624;BMP280;26325;48.594;11.650;2023-03-11T08:05:18;95750.25;;;5.01
40624;BMP280;26325;48.594;11.650;2023-03-11T08:07:45;95758.72;;;4.45
40624;BMP280;26325;48.594;11.650;2023-03-11T08:10:12;95762.84;;;4.35
40624;BMP280;26325;48.594;11.650;2023-03-11T08:12:38;95755.25;;;4.18
40624;BMP280;26325;48.594;11.650;2023-03-11T08:15:04;95750.09;;;3.95
40624;BMP280;26325;48.594;11.650;2023-03-11T08:17:37;95742.28;;;3.90
40624;BMP280;26325;48.594;11.650;2023-03-11T08:20:03;95743.91;;;4.14
40624;BMP280;26325;48.594;11.650;2023-03-11T08:22:35;95749.25;;;4.12
40624;BMP280;26325;48.594;11.650;2023-03-11T08:25:04;95746.50;;;4.36
40624;BMP280;26325;48.594;11.650;2023-03-11T08:27:30;95756.25;;;4.17
40624;BMP280;26325;48.594;11.650;2023-03-11T08:29:56;95745.63;;;4.64
40624;BMP280;26325;48.594;11.650;2023-03-11T08:32:22;95747.88;;;5.22
40624;BMP280;26325;48.594;11.650;2023-03-11T08:34:49;95752.81;;;6.37
40624;BMP280;26325;48.594;11.650;2023-03-11T08:37:15;95754.66;;;6.74
40624;BMP280;26325;48.594;11.650;2023-03-11T08:39:43;95751.38;;;6.94
40624;BMP280;26325;48.594;11.650;2023-03-11T08:42:08;95756.84;;;7.86
40624;BMP280;26325;48.594;11.650;2023-03-11T08:44:33;95765.59;;;8.37
40624;BMP280;26325;48.594;11.650;2023-03-11T08:47:01;95768.03;;;7.97
40624;BMP280;26325;48.594;11.650;2023-03-11T08:49:27;95774.25;;;8.00
40624;BMP280;26325;48.594;11.650;2023-03-11T08:51:55;95770.50;;;8.08
40624;BMP280;26325;48.594;11.650;2023-03-11T08:54:21;95780.41;;;8.51
40624;BMP280;26325;48.594;11.650;2023-03-11T08:56:46;95765.28;;;8.59
40624;BMP280;26325;48.594;11.650;2023-03-11T08:59:13;95766.31;;;8.99
40624;BMP280;26325;48.594;11.650;2023-03-11T09:01:39;95775.50;;;8.85
40624;BMP280;26325;48.594;11.650;2023-03-11T09:04:04;95776.59;;;8.02
40624;BMP280;26325;48.594;11.650;2023-03-11T09:06:30;95775.78;;;7.55
40624;BMP280;26325;48.594;11.650;2023-03-11T09:09:02;95789.66;;;7.17
40624;BMP280;26325;48.594;11.650;2023-03-11T09:11:28;95788.03;;;6.42
40624;BMP280;26325;48.594;11.650;2023-03-11T09:13:53;95802.78;;;6.19
40624;BMP280;26325;48.594;11.650;2023-03-11T09:16:21;95776.50;;;6.28
40624;BMP280;26325;48.594;11.650;2023-03-11T09:18:47;95807.13;;;6.18
40624;BMP280;26325;48.594;11.650;2023-03-11T09:21:12;95796.28;;;5.73
40624;BMP280;26325;48.594;11.650;2023-03-11T09:23:38;95804.25;;;5.88
40624;BMP280;26325;48.594;11.650;2023-03-11T09:26:04;95805.19;;;5.82
40624;BMP280;26325;48.594;11.650;2023-03-11T09:28:29;95809.81;;;5.46
40624;BMP280;26325;48.594;11.650;2023-03-11T09:30:56;95809.72;;;5.41
40624;BMP280;26325;48.594;11.650;2023-03-11T09:33:21;95802.97;;;5.24
40624;BMP280;26325;48.594;11.650;2023-03-11T09:35:47;95817.56;;;5.01
40624;BMP280;26325;48.594;11.650;2023-03-11T09:38:12;95825.75;;;5.26
40624;BMP280;26325;48.594;11.650;2023-03-11T09:55:46;95828.72;;;6.22
40624;BMP280;26325;48.594;11.650;2023-03-11T09:58:21;95821.59;;;7.04
40624;BMP280;26325;48.594;11.650;2023-03-11T10:00:51;95821.44;;;7.90
40624;BMP280;26325;48.594;11.650;2023-03-11T10:03:31;95811.84;;;8.58
40624;BMP280;26325;48.594;11.650;2023-03-11T10:06:27;95805.81;;;9.54
40624;BMP280;26325;48.594;11.650;2023-03-11T10:23:17;95821.66;;;9.82
40624;BMP280;26325;48.594;11.650;2023-03-11T10:28:38;95817.84;;;9.94
40624;BMP280;26325;48.594;11.650;2023-03-11T10:34:02;95833.50;;;9.33
40624;BMP280;26325;48.594;11.650;2023-03-11T10:36:40;95825.16;;;9.62
40624;BMP280;26325;48.594;11.650;2023-03-11T10:39:08;95826.13;;;10.01
40624;BMP280;26325;48.594;11.650;2023-03-11T10:41:43;95826.75;;;10.57
40624;BMP280;26325;48.594;11.650;2023-03-11T10:44:35;95826.81;;;9.82
40624;BMP280;26325;48.594;11.650;2023-03-11T10:47:01;95829.16;;;9.84
40624;BMP280;26325;48.594;11.650;2023-03-11T10:49:27;95820.56;;;9.73
40624;BMP280;26325;48.594;11.650;2023-03-11T10:51:55;95831.28;;;9.51
40624;BMP280;26325;48.594;11.650;2023-03-11T10:54:31;95831.34;;;9.15
40624;BMP280;26325;48.594;11.650;2023-03-11T10:57:02;95832.00;;;9.37
40624;BMP280;26325;48.594;11.650;2023-03-11T11:02:30;95827.75;;;9.21
40624;BMP280;26325;48.594;11.650;2023-03-11T11:07:44;95825.34;;;9.46
40624;BMP280;26325;48.594;11.650;2023-03-11T11:12:57;95828.03;;;9.75
40624;BMP280;26325;48.594;11.650;2023-03-11T11:15:34;95836.63;;;9.40
40624;BMP280;26325;48.594;11.650;2023-03-11T11:18:19;95830.78;;;9.54
40624;BMP280;26325;48.594;11.650;2023-03-11T11:23:48;95823.72;;;9.35
40624;BMP280;26325;48.594;11.650;2023-03-11T11:26:24;95824.56;;;9.50
40624;BMP280;26325;48.594;11.650;2023-03-11T11:31:44;95830.91;;;8.62
40624;BMP280;26325;48.594;11.650;2023-03-11T11:34:32;95832.72;;;8.10
40624;BMP280;26325;48.594;11.650;2023-03-11T11:37:00;95838.31;;;7.44
40624;BMP280;26325;48.594;11.650;2023-03-11T11:39:28;95844.00;;;6.93
40624;BMP280;26325;48.594;11.650;2023-03-11T11:41:55;95837.78;;;6.73
40624;BMP280;26325;48.594;11.650;2023-03-11T11:44:21;95844.09;;;6.82
40624;BMP280;26325;48.594;11.650;2023-03-11T11:46:57;95839.31;;;6.42
40624;BMP280;26325;48.594;11.650;2023-03-11T11:49:28;95852.72;;;6.44
40624;BMP280;26325;48.594;11.650;2023-03-11T11:52:11;95827.75;;;6.55
40624;BMP280;26325;48.594;11.650;2023-03-11T11:57:15;95829.41;;;6.45
40624;BMP280;26325;48.594;11.650;2023-03-11T11:59:42;95838.25;;;6.54
40624;BMP280;26325;48.594;11.650;2023-03-11T12:02:34;95832.56;;;7.00
40624;BMP280;26325;48.594;11.650;2023-03-11T12:11:01;95827.59;;;7.89
40624;BMP280;26325;48.594;11.650;2023-03-11T12:19:13;95827.75;;;8.50
40624;BMP280;26325;48.594;11.650;2023-03-11T12:27:39;95822.09;;;10.44
40624;BMP280;26325;48.594;11.650;2023-03-11T12:30:15;95815.66;;;10.56
40624;BMP280;26325;48.594;11.650;2023-03-11T12:32:55;95819.97;;;11.58
40624;BMP280;26325;48.594;11.650;2023-03-11T12:40:46;95812.09;;;11.87
40624;BMP280;26325;48.594;11.650;2023-03-11T12:46:07;95816.97;;;10.73
40624;BMP280;26325;48.594;11.650;2023-03-11T12:53:52;95804.22;;;10.13
40624;BMP280;26325;48.594;11.650;2023-03-11T12:56:37;95809.81;;;9.91
40624;BMP280;26325;48.594;11.650;2023-03-11T13:12:50;95801.81;;;9.32
40624;BMP280;26325;48.594;11.650;2023-03-11T13:23:29;95832.13;;;8.24
40624;BMP280;26325;48.594;11.650;2023-03-11T13:39:30;95839.91;;;8.08
40624;BMP280;26325;48.594;11.650;2023-03-11T13:41:58;95847.59;;;7.66
40624;BMP280;26325;48.594;11.650;2023-03-11T13:44:28;95834.75;;;7.87
40624;BMP280;26325;48.594;11.650;2023-03-11T13:47:06;95840.09;;;8.27
40624;BMP280;26325;48.594;11.650;2023-03-11T13:52:26;95843.72;;;7.84
40624;BMP280;26325;48.594;11.650;2023-03-11T13:55:47;95847.66;;;7.92
40624;BMP280;26325;48.594;11.650;2023-03-11T13:57:55;95850.44;;;7.64
40624;BMP280;26325;48.594;11.650;2023-03-11T14:00:26;95863.28;;;7.64
40624;BMP280;26325;48.594;11.650;2023-03-11T14:02:56;95862.06;;;7.72
40624;BMP280;26325;48.594;11.650;2023-03-11T14:05:28;95865.84;;;7.64
40624;BMP280;26325;48.594;11.650;2023-03-11T14:16:08;95875.59;;;6.77
40624;BMP280;26325;48.594;11.650;2023-03-11T14:21:00;95879.63;;;7.05
40624;BMP280;26325;48.594;11.650;2023-03-11T14:23:38;95879.34;;;6.86
40624;BMP280;26325;48.594;11.650;2023-03-11T14:26:06;95879.81;;;6.40
40624;BMP280;26325;48.594;11.650;2023-03-11T14:28:35;95883.91;;;6.68
40624;BMP280;26325;48.594;11.650;2023-03-11T14:31:01;95879.41;;;6.75
40624;BMP280;26325;48.594;11.650;2023-03-11T14:33:30;95874.97;;;6.86
40624;BMP280;26325;48.594;11.650;2023-03-11T14:36:03;95879.25;;;6.81
40624;BMP280;26325;48.594;11.650;2023-03-11T14:38:33;95885.41;;;6.96
40624;BMP280;26325;48.594;11.650;2023-03-11T14:41:01;95877.94;;;6.79
40624;BMP280;26325;48.594;11.650;2023-03-11T14:43:31;95880.63;;;6.88
40624;BMP280;26325;48.594;11.650;2023-03-11T14:45:57;95879.56;;;6.84
40624;BMP280;26325;48.594;11.650;2023-03-11T14:48:32;95896.00;;;6.56
40624;BMP280;26325;48.594;11.650;2023-03-11T14:50:59;95881.13;;;6.85
40624;BMP280;26325;48.594;11.650;2023-03-11T14:53:39;95897.34;;;6.59
40624;BMP280;26325;48.594;11.650;2023-03-11T14:56:12;95894.50;;;7.03
40624;BMP280;26325;48.594;11.650;2023-03-11T14:58:40;95886.47;;;7.16
40624;BMP280;26325;48.594;11.650;2023-03-11T15:03:57;95886.28;;;7.55
40624;BMP280;26325;48.594;11.650;2023-03-11T15:06:27;95888.06;;;7.75
40624;BMP280;26325;48.594;11.650;2023-03-11T15:09:02;95883.94;;;8.63
40624;BMP280;26325;48.594;11.650;2023-03-11T15:11:30;95880.13;;;8.96
40624;BMP280;26325;48.594;11.650;2023-03-11T15:14:15;95890.03;;;9.44
40624;BMP280;26325;48.594;11.650;2023-03-11T15:16:44;95868.94;;;9.57
40624;BMP280;26325;48.594;11.650;2023-03-11T15:21:54;95887.53;;;8.62
40624;BMP280;26325;48.594;11.650;2023-03-11T15:24:28;95888.41;;;8.46
40624;BMP280;26325;48.594;11.650;2023-03-11T15:27:05;95893.84;;;8.24
40624;BMP280;26325;48.594;11.650;2023-03-11T15:29:32;95899.16;;;7.97
40624;BMP280;26325;48.594;11.650;2023-03-11T15:31:58;95902.41;;;7.71
40624;BMP280;26325;48.594;11.650;2023-03-11T15:34:32;95903.97;;;7.35
40624;BMP280;26325;48.594;11.650;2023-03-11T15:37:02;95915.84;;;7.41
40624;BMP280;26325;48.594;11.650;2023-03-11T15:44:34;95928.78;;;6.98
40624;BMP280;26325;48.594;11.650;2023-03-11T15:47:01;95919.44;;;6.76
40624;BMP280;26325;48.594;11.650;2023-03-11T15:49:29;95925.34;;;6.60
40624;BMP280;26325;48.594;11.650;2023-03-11T15:51:59;95934.13;;;6.37
40624;BMP280;26325;48.594;11.650;2023-03-11T15:54:25;95934.13;;;6.37
40624;BMP280;26325;48.594;11.650;2023-03-11T15:56:55;95937.91;;;6.07
40624;BMP280;26325;48.594;11.650;2023-03-11T15:59:21;95927.47;;;5.86
40624;BMP280;26325;48.594;11.650;2023-03-11T16:01:46;95940.75;;;5.83
40624;BMP280;26325;48.594;11.650;2023-03-11T16:04:13;95932.28;;;5.71
40624;BMP280;26325;48.594;11.650;2023-03-11T16:06:40;95939.97;;;5.60
40624;BMP280;26325;48.594;11.650;2023-03-11T16:09:06;95936.97;;;5.52
40624;BMP280;26325;48.594;11.650;2023-03-11T16:11:31;95928.75;;;5.50
40624;BMP280;26325;48.594;11.650;2023-03-11T16:13:58;95931.50;;;5.37
40624;BMP280;26325;48.594;11.650;2023-03-11T16:16:23;95936.06;;;5.47
40624;BMP280;26325;48.594;11.650;2023-03-11T16:18:49;95939.41;;;5.47
40624;BMP280;26325;48.594;11.650;2023-03-11T16:21:18;95948.88;;;5.35
40624;BMP280;26325;48.594;11.650;2023-03-11T16:23:45;95950.78;;;5.29
40624;BMP280;26325;48.594;11.650;2023-03-11T16:26:12;95948.53;;;5.21
40624;BMP280;26325;48.594;11.650;2023-03-11T16:28:38;95938.19;;;5.16
40624;BMP280;26325;48.594;11.650;2023-03-11T16:31:06;95931.84;;;5.07
40624;BMP280;26325;48.594;11.650;2023-03-11T16:33:34;95925.38;;;5.05
40624;BMP280;26325;48.594;11.650;2023-03-11T16:35:59;95929.72;;;5.04
40624;BMP280;26325;48.594;11.650;2023-03-11T16:38:27;95932.28;;;5.04
40624;BMP280;26325;48.594;11.650;2023-03-11T16:41:00;95936.94;;;4.96
40624;BMP280;26325;48.594;11.650;2023-03-11T16:43:27;95932.47;;;4.92
40624;BMP280;26325;48.594;11.650;2023-03-11T16:45:52;95940.38;;;4.90
40624;BMP280;26325;48.594;11.650;2023-03-11T16:48:21;95944.72;;;4.90